Metar Aviation Weather Data EIDW Dublin

7°C Temp
4°C Dewpoint
81% Humidity
Temperature
11 KM/H
7 MPH
6 KTS
200°
South South
West

Wind Speed
Partly Cloudy
Conditions
Pressure 995 (hPa) - 29.38 (in)
Visibility 6.2 (mi) - 10 (km)

Current Conditions
EIDW
Dublin
Metar :EIDW 181930Z 20006KT 9999 FEW018 SCT030 07/04 Q0995 NOSIG
Tue 18th December 20:30 pm

Dublin
  Metar Aviation API Data Provided by https://www.checkwx.com/ PHP scripts by weather34.com ©2018